Islay — FGE2920 — position and weather

sailwx.info

Track history (hours):
 
Tides and Currents Weather Stations Pressure Air Temp Water Temp Dewpoint Dewpoint Depression Visibility Wind Speed Wind Dir Waves Ship Positions

Islay

Last reported at 2018-Jun-09 16:48 UTC. Time now 2018-Jun-19 20:22 UTC.
Position N 46°30' W 001°48'.
Warning: this ship's position is 10 days out of date.

Length 9 m.

Type: Pleasure craft. MMSI: 227623390.

Date/timePositionNaut miles runAvg speedWind from/ knotsBaromVisibWave heightAir tempDewpointWater temp
2018-Jun-09 16:48N 46°30' W 001°48'0 0.0
2018-Jun-09 16:30N 46°30' W 001°48'2 3.0
2018-Jun-09 16:00N 46°29' W 001°47'4 4.3
2018-Jun-09 15:00N 46°26' W 001°42'1 2.6
2018-Jun-09 14:30N 46°26' W 001°44'3 5.5
2018-Jun-09 14:00N 46°27' W 001°48'2 4.8
2018-Jun-09 13:30N 46°29' W 001°50'2 3.8
2018-Jun-09 12:59N 46°28' W 001°48'1 1.9
2018-Jun-09 12:30N 46°29' W 001°47'1 1.8
2018-Jun-09 11:59N 46°30' W 001°48'0 0.0
2018-Jun-08 17:51N 46°30' W 001°48'0 0.0
2018-Jun-08 17:30N 46°30' W 001°48'1 1.7
2018-Jun-08 17:00N 46°29' W 001°47'1 2.9
2018-Jun-08 16:30N 46°29' W 001°49'0 0.3
2018-Jun-08 16:00N 46°29' W 001°49'1 2.8
2018-Jun-08 15:30N 46°30' W 001°48'0 0.9
2018-Jun-08 14:58N 46°30' W 001°48'0 0.0
2018-Jun-08 14:28N 46°30' W 001°48'0 0.0
2018-Jun-08 13:58N 46°30' W 001°48'0 0.0
2018-Jun-08 13:28N 46°30' W 001°48'  
Track history (hours):
 
Tides and Currents Weather Stations Pressure Air Temp Water Temp Dewpoint Dewpoint Depression Visibility Wind Speed Wind Dir Waves Ship Positions

Islay

Last reported at 2018-Jun-09 16:48 UTC. Time now 2018-Jun-19 20:22 UTC.
Position N 46°30' W 001°48'.
Warning: this ship's position is 10 days out of date.

Length 9 m.

Type: Pleasure craft. MMSI: 227623390.

Date/timePositionNaut miles runAvg speedWind from/ knotsBaromVisibWave heightAir tempDewpointWater temp
2018-Jun-09 16:48N 46°30' W 001°48'0 0.0
2018-Jun-09 16:30N 46°30' W 001°48'2 3.0
2018-Jun-09 16:00N 46°29' W 001°47'4 4.3
2018-Jun-09 15:00N 46°26' W 001°42'1 2.6
2018-Jun-09 14:30N 46°26' W 001°44'3 5.5
2018-Jun-09 14:00N 46°27' W 001°48'2 4.8
2018-Jun-09 13:30N 46°29' W 001°50'2 3.8
2018-Jun-09 12:59N 46°28' W 001°48'1 1.9
2018-Jun-09 12:30N 46°29' W 001°47'1 1.8
2018-Jun-09 11:59N 46°30' W 001°48'0 0.0
2018-Jun-08 17:51N 46°30' W 001°48'0 0.0
2018-Jun-08 17:30N 46°30' W 001°48'1 1.7
2018-Jun-08 17:00N 46°29' W 001°47'1 2.9
2018-Jun-08 16:30N 46°29' W 001°49'0 0.3
2018-Jun-08 16:00N 46°29' W 001°49'1 2.8
2018-Jun-08 15:30N 46°30' W 001°48'0 0.9
2018-Jun-08 14:58N 46°30' W 001°48'0 0.0
2018-Jun-08 14:28N 46°30' W 001°48'0 0.0
2018-Jun-08 13:58N 46°30' W 001°48'0 0.0
2018-Jun-08 13:28N 46°30' W 001°48'  

Dump ship's entire track history